Aden, Yemen
Current Conditions -  °F | °C
As of 3:00 AM on Wednesday 26 Nov 2014 (Local Time) from OYAA Reporting Station
Scattered Clouds Scattered Clouds  
Wind Chill: 26°   Ceiling: Unl
Heat Index: 27°   Visibility: 6mi
Dew Point: 19°   Wind: 10mph
Humidity: 65%   Direction: 130°SE
Pressure: 29.85"   Gusts: NA
Location:  12.79°N, 45.03°E
Report Text: OYAA 260000Z 13009KT 9999 SCT018 26/19 Q1011
Loading
Personal Weather Stations






























Interactive Weather Map New forecast layout! Learn more

10-Day Weather Forecast

Advertisements
Track Severe Weather on mobile